Time;durP1;ratioP1;P1;durP2;ratioP2;P2;SDS_P1;SDS_P2;PMS_P1;PMS_P2;Temp;Humidity;BMP_temperature;BMP_pressure;BME280_temperature;BME280_humidity;BME280_pressure;Samples;Min_cycle;Max_cycle;Signal;HPM_P1;HPM_P2
2023/05/06 00:00:13;;;;;;;6.78;2.40;;;16.20;99.90;;;;;;5111389;28;20046;-84
2023/05/06 00:02:39;;;;;;;7.03;2.58;;;16.20;99.90;;;;;;5111613;28;20077;-84
2023/05/06 00:05:05;;;;;;;5.28;2.17;;;16.10;99.90;;;;;;5111413;27;20085;-85
2023/05/06 00:07:31;;;;;;;7.35;2.60;;;16.00;99.90;;;;;;5111929;28;20030;-85
2023/05/06 00:09:57;;;;;;;7.43;2.22;;;16.00;99.90;;;;;;5111559;28;20027;-85
2023/05/06 00:12:22;;;;;;;7.75;2.78;;;16.00;99.90;;;;;;5110948;28;20079;-84
2023/05/06 00:14:48;;;;;;;9.25;2.60;;;16.00;99.90;;;;;;5111864;28;20032;-84
2023/05/06 00:17:14;;;;;;;6.85;2.60;;;16.00;99.90;;;;;;5111915;28;20114;-84
2023/05/06 00:19:39;;;;;;;7.32;2.63;;;16.00;99.90;;;;;;5111729;28;20107;-84
2023/05/06 00:22:07;;;;;;;5.22;2.50;;;15.90;99.90;;;;;;5111529;28;20055;-84
2023/05/06 00:24:32;;;;;;;5.80;2.40;;;15.90;99.90;;;;;;5111259;28;20023;-84
2023/05/06 00:26:58;;;;;;;7.15;2.45;;;15.90;99.90;;;;;;5111730;28;20055;-84
2023/05/06 00:29:24;;;;;;;7.93;2.67;;;15.90;99.90;;;;;;5111306;28;20023;-84
2023/05/06 00:31:49;;;;;;;5.30;2.55;;;15.90;99.90;;;;;;5111995;28;20531;-83
2023/05/06 00:34:15;;;;;;;6.57;2.75;;;15.90;99.90;;;;;;5111748;28;20019;-82
2023/05/06 00:36:41;;;;;;;6.13;2.40;;;15.80;99.90;;;;;;5111525;28;20108;-82
2023/05/06 00:39:08;;;;;;;6.07;2.60;;;15.80;99.90;;;;;;5113848;28;20031;-82
2023/05/06 00:41:34;;;;;;;7.40;2.65;;;15.80;99.90;;;;;;5115278;27;20115;-82
2023/05/06 00:44:00;;;;;;;5.97;2.33;;;15.70;99.90;;;;;;5115237;28;20095;-83
2023/05/06 00:46:26;;;;;;;6.38;2.60;;;15.70;99.90;;;;;;5115539;28;20031;-83
2023/05/06 00:48:52;;;;;;;5.15;2.45;;;15.70;99.90;;;;;;5096617;28;20020;-82
2023/05/06 00:51:17;;;;;;;8.35;3.13;;;15.70;99.90;;;;;;5114833;28;20519;-82
2023/05/06 00:53:46;;;;;;;7.50;2.60;;;15.60;99.90;;;;;;5114915;28;20051;-82
2023/05/06 00:56:12;;;;;;;5.50;2.40;;;15.60;99.90;;;;;;5114656;28;20023;-82
2023/05/06 00:58:38;;;;;;;6.55;2.67;;;15.60;99.90;;;;;;5114979;28;20115;-82
2023/05/06 01:01:04;;;;;;;4.82;2.38;;;15.60;99.90;;;;;;5096992;28;20450;-81
2023/05/06 01:03:30;;;;;;;6.90;2.30;;;15.60;99.90;;;;;;5096246;28;20073;-81
2023/05/06 01:06:08;;;;;;;7.43;2.97;;;15.60;99.90;;;;;;5115110;28;20030;-80
2023/05/06 01:08:52;;;;;;;5.78;2.47;;;15.60;99.90;;;;;;5114448;28;20027;-81
2023/05/06 01:11:32;;;;;;;;;;;15.60;99.90;;;;;;5115183;28;20047;-82
2023/05/06 01:14:06;;;;;;;6.18;2.40;;;15.60;99.90;;;;;;5114743;28;19972;-82
2023/05/06 01:16:36;;;;;;;5.70;2.33;;;15.50;99.90;;;;;;5115102;28;20028;-82
2023/05/06 01:19:07;;;;;;;5.22;2.15;;;15.50;99.90;;;;;;5114306;28;20027;-83
2023/05/06 01:21:34;;;;;;;5.50;2.40;;;15.40;99.90;;;;;;5114046;28;20040;-83
2023/05/06 01:24:00;;;;;;;5.22;2.38;;;15.40;99.90;;;;;;5114663;28;20385;-84
2023/05/06 01:26:26;;;;;;;4.75;2.47;;;15.40;99.90;;;;;;5114434;28;20031;-82
2023/05/06 01:28:56;;;;;;;4.93;2.13;;;15.30;99.90;;;;;;5114213;28;20028;-82
2023/05/06 01:31:28;;;;;;;5.50;2.72;;;15.30;99.90;;;;;;5114408;28;20043;-82
2023/05/06 01:34:35;;;;;;;5.10;2.30;;;15.30;99.90;;;;;;5114272;28;20427;-81
2023/05/06 01:37:19;;;;;;;6.32;2.25;;;15.30;99.90;;;;;;5051219;28;20049;-82
2023/05/06 01:39:45;;;;;;;7.55;2.40;;;15.30;99.90;;;;;;5051149;28;20060;-81
2023/05/06 01:42:13;;;;;;;5.72;2.75;;;15.30;99.90;;;;;;5050698;28;20033;-81
2023/05/06 01:44:39;;;;;;;4.97;2.42;;;15.30;99.90;;;;;;5051237;28;20029;-81
2023/05/06 01:47:07;;;;;;;4.50;2.38;;;15.20;99.90;;;;;;5050960;28;20049;-82
2023/05/06 01:49:34;;;;;;;5.20;2.40;;;15.20;99.90;;;;;;5050162;28;20486;-81
2023/05/06 01:52:01;;;;;;;4.35;2.30;;;15.20;99.90;;;;;;5051163;28;20032;-80
2023/05/06 01:54:27;;;;;;;8.15;2.47;;;15.20;99.90;;;;;;5050230;28;20099;-81
2023/05/06 01:56:53;;;;;;;5.95;2.28;;;15.20;99.90;;;;;;5050778;28;20513;-81
2023/05/06 01:59:18;;;;;;;4.32;2.33;;;15.20;99.90;;;;;;5050463;28;20028;-79
2023/05/06 02:01:44;;;;;;;6.18;2.22;;;15.20;99.90;;;;;;5050592;28;20040;-80
2023/05/06 02:04:10;;;;;;;5.75;2.10;;;15.20;99.90;;;;;;5051055;28;20029;-81
2023/05/06 02:06:35;;;;;;;5.50;2.20;;;15.30;99.90;;;;;;5050655;28;20056;-79
2023/05/06 02:09:01;;;;;;;5.10;2.00;;;15.30;99.90;;;;;;5049869;28;20394;-81
2023/05/06 02:11:27;;;;;;;4.57;2.40;;;15.30;99.90;;;;;;5050347;28;20156;-82
2023/05/06 02:13:53;;;;;;;6.85;2.47;;;15.30;99.90;;;;;;5094488;28;20043;-82
2023/05/06 02:16:20;;;;;;;5.53;2.17;;;15.30;99.90;;;;;;5113606;28;20400;-82
2023/05/06 02:18:46;;;;;;;6.78;2.25;;;15.20;99.90;;;;;;5113391;28;20093;-82
2023/05/06 02:21:12;;;;;;;5.07;2.30;;;15.20;99.90;;;;;;5113118;28;20035;-81
2023/05/06 02:23:38;;;;;;;5.70;2.25;;;15.30;99.90;;;;;;5113024;28;20035;-82
2023/05/06 02:26:04;;;;;;;4.03;2.25;;;15.20;99.90;;;;;;5113121;28;20034;-80
2023/05/06 02:28:29;;;;;;;5.70;2.35;;;15.20;99.90;;;;;;5113438;28;20019;-80
2023/05/06 02:30:56;;;;;;;5.22;1.90;;;15.20;99.90;;;;;;5113000;28;20114;-79
2023/05/06 02:33:22;;;;;;;3.30;1.95;;;15.20;99.90;;;;;;5112786;28;20024;-80
2023/05/06 02:35:48;;;;;;;3.50;1.92;;;15.20;99.90;;;;;;5112908;28;20097;-79
2023/05/06 02:38:14;;;;;;;3.78;2.15;;;15.30;99.90;;;;;;5112677;28;20051;-82
2023/05/06 02:40:39;;;;;;;5.78;2.63;;;15.20;99.90;;;;;;5112594;28;20504;-82
2023/05/06 02:43:05;;;;;;;4.72;2.10;;;15.20;99.90;;;;;;5112676;28;20023;-81
2023/05/06 02:45:31;;;;;;;3.65;2.17;;;15.20;99.90;;;;;;5112751;28;20028;-82
2023/05/06 02:47:56;;;;;;;3.33;2.10;;;15.30;99.90;;;;;;5112930;28;20024;-83
2023/05/06 02:50:22;;;;;;;3.72;1.90;;;15.30;99.90;;;;;;5112002;28;20103;-83
2023/05/06 02:52:48;;;;;;;4.75;2.47;;;15.20;99.90;;;;;;5094675;28;20036;-82
2023/05/06 02:55:13;;;;;;;6.65;2.47;;;15.20;99.90;;;;;;5112995;28;20011;-81
2023/05/06 02:57:39;;;;;;;3.83;2.28;;;15.10;99.90;;;;;;5112312;28;20102;-82
2023/05/06 03:00:05;;;;;;;4.65;2.70;;;15.20;99.90;;;;;;5112776;28;20024;-81
2023/05/06 03:02:31;;;;;;;6.95;2.42;;;15.10;99.90;;;;;;5112034;28;20027;-80
2023/05/06 03:04:57;;;;;;;5.78;2.50;;;15.10;99.90;;;;;;5112385;28;20491;-80
2023/05/06 03:07:22;;;;;;;5.85;2.50;;;15.00;99.90;;;;;;5093943;28;20067;-80
2023/05/06 03:09:48;;;;;;;5.75;2.60;;;15.00;99.90;;;;;;5112114;28;20020;-80
2023/05/06 03:12:14;;;;;;;5.50;2.67;;;15.00;99.90;;;;;;5111864;28;20043;-80
2023/05/06 03:14:39;;;;;;;4.32;2.47;;;15.00;99.90;;;;;;5112166;28;20031;-81
2023/05/06 03:17:05;;;;;;;5.72;2.50;;;15.00;99.90;;;;;;5127920;27;20036;-79
2023/05/06 03:19:31;;;;;;;6.00;2.80;;;14.90;99.90;;;;;;5111965;28;20028;-79
2023/05/06 03:21:56;;;;;;;6.25;2.95;;;14.90;99.90;;;;;;5093777;28;20491;-80
2023/05/06 03:24:22;;;;;;;5.32;2.53;;;14.90;99.90;;;;;;5111832;28;20031;-81
2023/05/06 03:26:48;;;;;;;5.75;2.70;;;14.90;99.90;;;;;;5111862;28;20035;-81
2023/05/06 03:29:13;;;;;;;4.95;2.25;;;14.90;99.90;;;;;;5112005;28;20030;-80
2023/05/06 03:31:39;;;;;;;6.00;3.03;;;14.90;99.90;;;;;;5111840;28;20054;-79
2023/05/06 03:34:05;;;;;;;5.03;2.70;;;14.90;99.90;;;;;;5111945;28;20028;-79
2023/05/06 03:36:30;;;;;;;6.95;2.50;;;14.80;99.90;;;;;;5112167;28;20030;-80
2023/05/06 03:38:56;;;;;;;4.60;2.50;;;14.90;99.90;;;;;;5111830;28;20031;-79
2023/05/06 03:41:23;;;;;;;5.00;2.58;;;14.90;99.90;;;;;;5111987;28;20036;-80
2023/05/06 03:43:49;;;;;;;4.70;2.45;;;15.00;99.90;;;;;;5112130;28;20038;-80
2023/05/06 03:46:15;;;;;;;4.80;2.50;;;14.90;99.90;;;;;;5112098;28;20110;-80
2023/05/06 03:48:40;;;;;;;5.85;2.60;;;14.90;99.90;;;;;;5111876;28;20107;-81
2023/05/06 03:51:06;;;;;;;3.70;2.15;;;14.90;99.90;;;;;;5111571;28;20027;-80
2023/05/06 03:53:32;;;;;;;5.82;2.30;;;14.90;99.90;;;;;;5111710;28;20035;-80
2023/05/06 03:55:58;;;;;;;4.60;2.30;;;14.80;99.90;;;;;;5111988;28;20115;-80
2023/05/06 03:58:23;;;;;;;6.70;2.55;;;14.90;99.90;;;;;;5111682;28;20043;-81
2023/05/06 04:00:49;;;;;;;5.55;2.35;;;14.90;99.90;;;;;;5111354;28;20032;-81
2023/05/06 04:03:15;;;;;;;5.10;2.67;;;14.90;99.90;;;;;;5111766;28;20023;-81
2023/05/06 04:05:40;;;;;;;5.50;2.55;;;14.80;99.90;;;;;;5111627;28;20507;-81
2023/05/06 04:08:06;;;;;;;3.85;2.42;;;14.80;99.90;;;;;;5111342;28;20384;-81
2023/05/06 04:10:36;;;;;;;4.97;2.47;;;14.80;99.90;;;;;;5111761;28;20120;-82
2023/05/06 04:13:01;;;;;;;5.78;3.08;;;14.70;99.90;;;;;;5112649;28;20116;-83
2023/05/06 04:15:30;;;;;;;7.63;3.40;;;14.70;99.90;;;;;;5115785;28;20088;-82
2023/05/06 04:17:56;;;;;;;6.85;2.90;;;14.80;99.90;;;;;;5115686;28;20027;-82
2023/05/06 04:20:22;;;;;;;5.88;2.97;;;14.80;99.90;;;;;;5115808;28;20028;-82
2023/05/06 04:22:47;;;;;;;4.95;2.50;;;14.80;99.90;;;;;;5115865;28;20030;-82
2023/05/06 04:25:13;;;;;;;5.13;2.50;;;14.80;99.90;;;;;;5115368;28;20035;-81
2023/05/06 04:27:39;;;;;;;4.22;2.40;;;14.80;99.90;;;;;;5115550;28;20019;-83
2023/05/06 04:30:05;;;;;;;4.70;2.35;;;14.90;99.90;;;;;;5115075;28;20447;-82
2023/05/06 04:32:31;;;;;;;5.43;2.53;;;14.90;99.90;;;;;;5115302;28;20027;-82
2023/05/06 04:34:56;;;;;;;4.07;2.30;;;14.90;99.90;;;;;;5115368;28;20030;-82
2023/05/06 04:37:22;;;;;;;4.72;2.45;;;14.90;99.90;;;;;;5115237;28;20027;-81
2023/05/06 04:39:48;;;;;;;3.78;2.53;;;14.90;99.90;;;;;;5115156;28;20065;-82
2023/05/06 04:42:15;;;;;;;4.13;2.30;;;14.90;99.90;;;;;;5115340;28;20036;-82
2023/05/06 04:44:41;;;;;;;4.03;2.53;;;14.90;99.90;;;;;;5115134;28;20024;-83
2023/05/06 04:47:07;;;;;;;4.72;2.30;;;14.90;99.90;;;;;;5114817;28;20035;-83
2023/05/06 04:49:33;;;;;;;5.78;2.20;;;14.90;99.90;;;;;;5114976;28;20077;-81
2023/05/06 04:51:58;;;;;;;4.85;1.92;;;14.90;99.90;;;;;;5114897;28;20042;-82
2023/05/06 04:54:24;;;;;;;4.53;2.08;;;14.90;99.90;;;;;;5115648;28;20064;-82
2023/05/06 04:56:50;;;;;;;3.45;1.90;;;14.90;99.90;;;;;;5114715;28;20028;-81
2023/05/06 04:59:16;;;;;;;2.92;1.80;;;14.90;99.90;;;;;;5115102;28;20024;-81
2023/05/06 05:01:41;;;;;;;3.83;2.20;;;14.80;99.90;;;;;;5114576;28;20040;-82
2023/05/06 05:04:07;;;;;;;4.65;1.75;;;14.90;99.90;;;;;;5114933;28;20027;-81
2023/05/06 05:06:33;;;;;;;3.60;1.88;;;14.90;99.90;;;;;;5115004;28;20499;-80
2023/05/06 05:08:58;;;;;;;4.60;2.08;;;14.80;99.90;;;;;;5114317;28;20524;-81
2023/05/06 05:11:24;;;;;;;4.13;1.95;;;14.80;99.90;;;;;;5114678;28;20027;-81
2023/05/06 05:13:50;;;;;;;5.18;2.50;;;14.80;99.90;;;;;;5096548;28;20040;-81
2023/05/06 05:16:16;;;;;;;4.25;2.00;;;14.80;99.90;;;;;;5114424;28;20099;-81
2023/05/06 05:18:42;;;;;;;4.53;2.42;;;14.70;99.90;;;;;;5114618;28;20038;-82
2023/05/06 05:21:07;;;;;;;4.43;1.83;;;14.70;99.90;;;;;;5115027;28;20039;-81
2023/05/06 05:23:33;;;;;;;4.55;1.92;;;14.70;99.90;;;;;;5114476;28;20016;-82
2023/05/06 05:25:59;;;;;;;5.45;1.90;;;14.70;99.90;;;;;;5112993;28;20076;-81
2023/05/06 05:28:25;;;;;;;3.42;2.00;;;14.70;99.90;;;;;;5114567;28;20088;-82
2023/05/06 05:30:51;;;;;;;6.28;2.10;;;14.70;99.90;;;;;;5114120;28;20020;-83
2023/05/06 05:33:16;;;;;;;4.32;1.70;;;14.70;99.90;;;;;;5114165;28;20019;-82
2023/05/06 05:35:42;;;;;;;4.68;1.90;;;14.70;99.90;;;;;;5114394;28;20024;-82
2023/05/06 05:38:08;;;;;;;3.20;2.00;;;14.70;99.90;;;;;;5114896;28;20024;-82
2023/05/06 05:40:35;;;;;;;4.32;2.15;;;14.80;99.90;;;;;;5096140;28;20032;-82
2023/05/06 05:43:01;;;;;;;3.83;2.00;;;14.80;99.90;;;;;;5113689;28;20028;-83
2023/05/06 05:45:26;;;;;;;3.00;1.73;;;14.80;99.90;;;;;;5114080;28;20031;-83
2023/05/06 05:47:52;;;;;;;3.47;1.90;;;14.80;99.90;;;;;;5113830;28;20039;-83
2023/05/06 05:50:18;;;;;;;4.15;1.90;;;14.90;99.90;;;;;;5113641;28;20030;-81
2023/05/06 05:52:44;;;;;;;6.70;2.20;;;14.90;99.90;;;;;;5113924;28;20024;-79
2023/05/06 05:55:10;;;;;;;3.83;2.00;;;14.90;99.90;;;;;;5113684;28;20031;-80
2023/05/06 05:57:35;;;;;;;4.22;2.03;;;15.00;99.90;;;;;;5113500;28;20400;-79
2023/05/06 06:00:02;;;;;;;4.22;2.20;;;15.00;99.90;;;;;;5113513;28;20058;-79
2023/05/06 06:02:27;;;;;;;3.97;2.30;;;15.10;99.90;;;;;;5113678;28;20038;-79
2023/05/06 06:04:53;;;;;;;3.63;2.35;;;15.10;99.90;;;;;;5113775;28;20028;-79
2023/05/06 06:07:19;;;;;;;3.47;2.30;;;15.20;99.90;;;;;;5113495;28;20024;-79
2023/05/06 06:09:47;;;;;;;4.05;2.55;;;15.20;99.90;;;;;;5113194;28;20523;-80
2023/05/06 06:12:13;;;;;;;4.97;2.60;;;15.30;99.90;;;;;;5113223;28;20059;-79
2023/05/06 06:14:39;;;;;;;6.13;2.33;;;15.30;99.90;;;;;;5113487;28;20085;-79
2023/05/06 06:17:05;;;;;;;6.68;2.90;;;15.30;99.90;;;;;;5094929;28;20035;-80
2023/05/06 06:19:31;;;;;;;5.55;2.40;;;15.40;99.90;;;;;;5113188;28;20050;-79
2023/05/06 06:21:57;;;;;;;5.22;2.15;;;15.40;99.90;;;;;;5112934;28;20070;-79
2023/05/06 06:24:23;;;;;;;3.47;2.15;;;15.50;99.90;;;;;;5113281;28;20032;-79
2023/05/06 06:26:49;;;;;;;7.38;2.40;;;15.60;99.90;;;;;;5112814;28;20019;-79
2023/05/06 06:29:14;;;;;;;6.57;2.47;;;15.60;99.90;;;;;;5112647;28;20028;-79
2023/05/06 06:31:40;;;;;;;5.05;2.28;;;15.70;99.90;;;;;;5113027;28;20072;-77
2023/05/06 06:34:07;;;;;;;3.78;2.25;;;15.70;99.90;;;;;;5113130;28;20172;-78
2023/05/06 06:36:33;;;;;;;4.07;2.42;;;15.80;99.90;;;;;;5112441;28;20420;-77
2023/05/06 06:38:59;;;;;;;4.38;2.30;;;15.90;99.90;;;;;;5112857;28;20026;-77
2023/05/06 06:41:26;;;;;;;3.63;2.25;;;15.90;99.90;;;;;;5112590;28;20034;-77
2023/05/06 06:43:51;;;;;;;5.32;2.70;;;16.00;99.90;;;;;;5112508;28;20068;-78
2023/05/06 06:46:17;;;;;;;4.45;2.40;;;16.00;99.90;;;;;;5094287;28;20031;-78
2023/05/06 06:48:43;;;;;;;4.97;2.25;;;16.10;99.90;;;;;;5112902;28;20028;-78
2023/05/06 06:51:08;;;;;;;3.83;2.60;;;16.20;99.90;;;;;;5112409;28;20110;-78
2023/05/06 06:53:34;;;;;;;7.43;2.70;;;16.30;99.90;;;;;;5094130;28;20479;-78
2023/05/06 06:56:00;;;;;;;7.97;2.78;;;16.40;99.90;;;;;;5112496;28;20419;-80
2023/05/06 06:58:26;;;;;;;6.95;3.03;;;16.40;99.90;;;;;;5112455;28;20027;-80
2023/05/06 07:00:51;;;;;;;10.20;2.80;;;16.50;99.90;;;;;;5111990;28;20032;-77
2023/05/06 07:03:18;;;;;;;5.72;2.95;;;16.60;99.90;;;;;;5112859;28;20093;-77
2023/05/06 07:05:44;;;;;;;6.90;2.90;;;16.70;99.90;;;;;;5113530;28;20027;-76
2023/05/06 07:08:10;;;;;;;4.97;2.35;;;16.70;99.90;;;;;;5111997;28;20031;-78
2023/05/06 07:10:36;;;;;;;3.70;2.60;;;16.80;99.90;;;;;;5112065;28;20019;-77
2023/05/06 07:13:02;;;;;;;3.70;2.60;;;16.90;99.90;;;;;;5112031;28;20541;-78
2023/05/06 07:15:27;;;;;;;4.13;2.50;;;17.00;99.90;;;;;;5112400;28;20065;-78
2023/05/06 07:17:53;;;;;;;7.28;2.80;;;17.00;99.90;;;;;;5112138;28;20491;-77
2023/05/06 07:20:19;;;;;;;5.65;2.67;;;17.00;99.90;;;;;;5112131;28;20031;-77
2023/05/06 07:22:45;;;;;;;5.40;2.40;;;17.10;99.90;;;;;;5111999;28;20076;-77
2023/05/06 07:25:10;;;;;;;3.78;2.70;;;17.20;99.90;;;;;;5112277;28;20027;-76
2023/05/06 07:27:36;;;;;;;4.65;2.72;;;17.30;99.90;;;;;;5111697;28;20504;-78
2023/05/06 07:30:02;;;;;;;3.88;2.63;;;17.30;99.90;;;;;;5111789;28;20158;-78
2023/05/06 07:32:28;;;;;;;4.20;2.63;;;17.40;99.90;;;;;;5112481;28;20055;-78
2023/05/06 07:34:53;;;;;;;5.03;2.75;;;17.40;99.90;;;;;;5112583;28;20100;-79
2023/05/06 07:37:19;;;;;;;4.95;2.80;;;17.50;99.90;;;;;;5112610;28;20019;-78
2023/05/06 07:39:45;;;;;;;4.40;2.63;;;17.50;99.90;;;;;;5112260;28;20041;-78
2023/05/06 07:42:11;;;;;;;5.00;2.63;;;17.60;99.90;;;;;;5111810;28;20073;-78
2023/05/06 07:44:38;;;;;;;6.88;2.60;;;17.70;99.90;;;;;;5111944;28;20027;-78
2023/05/06 07:47:03;;;;;;;3.50;2.47;;;17.70;99.90;;;;;;5111737;28;20027;-78
2023/05/06 07:49:32;;;;;;;3.20;2.10;;;17.80;99.90;;;;;;5111694;28;20031;-78
2023/05/06 07:51:57;;;;;;;4.38;2.35;;;17.90;99.90;;;;;;5112135;28;20483;-78
2023/05/06 07:54:23;;;;;;;3.40;2.33;;;18.00;99.90;;;;;;5111604;28;20032;-78
2023/05/06 07:56:49;;;;;;;4.35;2.30;;;18.10;99.90;;;;;;5111513;28;20434;-78
2023/05/06 07:59:14;;;;;;;4.40;2.33;;;18.30;99.90;;;;;;5093580;28;20459;-77
2023/05/06 08:01:40;;;;;;;4.22;2.30;;;18.40;99.90;;;;;;5111863;28;20035;-77
2023/05/06 08:04:06;;;;;;;4.03;2.30;;;18.50;99.90;;;;;;5112018;28;20028;-78
2023/05/06 08:06:32;;;;;;;3.50;2.28;;;18.50;99.90;;;;;;5112410;28;20027;-77
2023/05/06 08:08:58;;;;;;;5.30;2.80;;;18.60;99.90;;;;;;5111536;28;20032;-78
2023/05/06 08:11:24;;;;;;;4.95;2.47;;;18.70;99.90;;;;;;5111435;28;20035;-78
2023/05/06 08:13:49;;;;;;;5.68;2.42;;;18.80;99.90;;;;;;5111632;28;20431;-78
2023/05/06 08:16:15;;;;;;;5.30;2.67;;;19.00;99.90;;;;;;5112051;28;20119;-78
2023/05/06 08:18:41;;;;;;;4.88;2.70;;;19.10;99.90;;;;;;5112176;28;20032;-79
2023/05/06 08:21:07;;;;;;;3.95;2.45;;;19.20;99.90;;;;;;5093414;28;20028;-78
2023/05/06 08:23:32;;;;;;;3.88;2.53;;;19.30;99.90;;;;;;5111344;28;20028;-78
2023/05/06 08:25:58;;;;;;;5.10;2.30;;;19.40;99.90;;;;;;5111260;28;20046;-78
2023/05/06 08:28:24;;;;;;;4.13;2.60;;;19.50;99.90;;;;;;5111555;28;20428;-78
2023/05/06 08:30:51;;;;;;;6.03;2.33;;;19.60;99.90;;;;;;5111359;28;20026;-78
2023/05/06 08:33:20;;;;;;;3.78;2.42;;;19.80;99.90;;;;;;5111263;28;20032;-78
2023/05/06 08:35:45;;;;;;;6.93;2.30;;;19.90;99.90;;;;;;5111573;28;20028;-77
2023/05/06 08:38:11;;;;;;;5.57;2.70;;;20.00;99.90;;;;;;5111157;28;20031;-78
2023/05/06 08:40:42;;;;;;;4.05;2.63;;;20.00;99.90;;;;;;5110834;28;20036;-77
2023/05/06 08:43:12;;;;;;;5.15;2.60;;;20.20;99.90;;;;;;5111604;28;20035;-78
2023/05/06 08:45:39;;;;;;;3.40;2.67;;;20.40;99.90;;;;;;5111177;28;20027;-78
2023/05/06 08:48:05;;;;;;;6.07;2.63;;;20.50;99.90;;;;;;5111467;28;20487;-78
2023/05/06 08:50:32;;;;;;;6.03;2.45;;;20.60;99.90;;;;;;5111069;28;20051;-78
2023/05/06 08:52:59;;;;;;;3.88;2.58;;;20.70;99.90;;;;;;5111317;28;20092;-78
2023/05/06 08:55:26;;;;;;;3.80;2.60;;;20.80;99.90;;;;;;5111232;28;20027;-78
2023/05/06 08:57:53;;;;;;;8.00;3.17;;;20.90;99.90;;;;;;5111166;28;20024;-78
2023/05/06 09:00:19;;;;;;;5.13;2.30;;;21.00;99.90;;;;;;5113787;28;20054;-78
2023/05/06 09:02:45;;;;;;;3.72;2.60;;;21.10;99.90;;;;;;5115073;28;20038;-78
2023/05/06 09:05:11;;;;;;;3.42;2.30;;;21.30;99.90;;;;;;5114662;28;20028;-78
2023/05/06 09:07:37;;;;;;;4.97;2.40;;;21.40;99.90;;;;;;5114454;28;20511;-77
2023/05/06 09:10:12;;;;;;;4.40;2.40;;;21.50;99.90;;;;;;5114396;28;20023;-77
2023/05/06 09:12:38;;;;;;;3.65;2.60;;;21.50;99.90;;;;;;5114412;28;20633;-77
2023/05/06 09:15:05;;;;;;;4.75;2.70;;;21.60;99.90;;;;;;5114969;28;20103;-78
2023/05/06 09:17:31;;;;;;;6.25;2.20;;;21.60;99.90;;;;;;5115015;28;20046;-77
2023/05/06 09:19:58;;;;;;;6.43;2.22;;;21.60;99.90;;;;;;5114591;28;20037;-78
2023/05/06 09:22:25;;;;;;;5.78;2.60;;;21.70;99.90;;;;;;5114049;28;20400;-77
2023/05/06 09:24:55;;;;;;;4.30;2.33;;;21.70;99.90;;;;;;5115194;28;20450;-78
2023/05/06 09:27:30;;;;;;;4.20;2.58;;;21.80;99.90;;;;;;5114450;28;20523;-77
2023/05/06 09:30:04;;;;;;;7.53;2.80;;;21.90;99.90;;;;;;5096599;28;20515;-78
2023/05/06 09:32:30;;;;;;;6.90;2.55;;;21.90;99.90;;;;;;5114357;28;20111;-78
2023/05/06 09:34:56;;;;;;;5.80;2.90;;;22.00;99.90;;;;;;5114258;28;20026;-77
2023/05/06 09:37:25;;;;;;;4.28;2.58;;;22.00;99.90;;;;;;5114404;28;20687;-77
2023/05/06 09:39:57;;;;;;;4.40;2.60;;;22.10;99.90;;;;;;5113966;28;20026;-78
2023/05/06 09:42:24;;;;;;;3.90;2.50;;;22.10;99.90;;;;;;5114121;28;20043;-77
2023/05/06 09:45:00;;;;;;;7.15;2.70;;;22.20;99.90;;;;;;5114076;28;20028;-78
2023/05/06 09:47:31;;;;;;;4.10;2.63;;;22.20;99.90;;;;;;5114264;28;20027;-78
2023/05/06 09:50:00;;;;;;;4.05;2.42;;;22.20;99.90;;;;;;5113651;28;20019;-78
2023/05/06 09:52:30;;;;;;;4.53;2.63;;;22.30;99.90;;;;;;5113474;28;20027;-77
2023/05/06 09:54:56;;;;;;;5.65;2.83;;;22.30;99.90;;;;;;5113947;28;20035;-78
2023/05/06 09:57:22;;;;;;;7.88;2.75;;;22.50;99.90;;;;;;5113811;28;20027;-77
2023/05/06 09:59:51;;;;;;;3.33;2.60;;;22.60;99.90;;;;;;5113455;28;20027;-78
2023/05/06 10:02:18;;;;;;;6.00;2.70;;;22.60;99.90;;;;;;5113761;28;20032;-78
2023/05/06 10:04:47;;;;;;;8.48;2.88;;;22.70;99.90;;;;;;5113443;28;20024;-78
2023/05/06 10:07:15;;;;;;;5.35;2.78;;;22.70;99.90;;;;;;5113288;28;21123;-78
2023/05/06 10:09:43;;;;;;;5.07;2.70;;;22.80;99.90;;;;;;5113942;28;20038;-77
2023/05/06 10:12:09;;;;;;;5.70;2.65;;;22.90;99.90;;;;;;5112962;28;20088;-78
2023/05/06 10:14:36;;;;;;;4.93;2.72;;;22.90;99.90;;;;;;5113932;28;20104;-78
2023/05/06 10:17:06;;;;;;;4.55;2.72;;;22.90;99.90;;;;;;5113870;28;20031;-77
2023/05/06 10:19:33;;;;;;;4.60;2.67;;;23.00;99.90;;;;;;5113780;28;20080;-78
2023/05/06 10:22:43;;;;;;;4.35;2.80;;;22.90;99.90;;;;;;5113017;28;20105;-78
2023/05/06 10:25:34;;;;;;;8.82;3.10;;;23.00;99.90;;;;;;5049272;28;20628;-78
2023/05/06 10:28:00;;;;;;;5.00;2.90;;;23.00;99.90;;;;;;5049825;28;20067;-81
2023/05/06 10:30:28;;;;;;;8.65;2.95;;;23.10;99.90;;;;;;5049279;28;20064;-81
2023/05/06 10:32:58;;;;;;;4.97;2.60;;;23.10;99.90;;;;;;5050542;28;20055;-81
2023/05/06 10:35:45;;;;;;;5.35;2.80;;;23.20;99.90;;;;;;5050038;28;20037;-82
2023/05/06 10:38:31;;;;;;;4.38;3.40;;;23.20;99.90;;;;;;5050158;28;20206;-81
2023/05/06 10:40:59;;;;;;;7.15;3.83;;;23.40;99.90;;;;;;5049994;28;20104;-81
2023/05/06 10:43:29;;;;;;;10.15;6.20;;;23.40;99.90;;;;;;5049657;28;20116;-80
2023/05/06 10:46:16;;;;;;;6.18;4.82;;;23.50;99.90;;;;;;5049949;28;20029;-83
2023/05/06 10:49:03;;;;;;;8.57;5.40;;;23.70;99.90;;;;;;5049973;28;20047;-84
2023/05/06 10:51:33;;;;;;;17.90;13.07;;;23.80;99.90;;;;;;5049251;28;20120;-83
2023/05/06 10:54:08;;;;;;;38.08;32.10;;;23.90;99.90;;;;;;5049829;28;20037;-82
2023/05/06 10:56:37;;;;;;;13.57;12.02;;;23.80;99.90;;;;;;5049488;28;20047;-84
2023/05/06 10:59:10;;;;;;;13.52;8.65;;;23.90;99.90;;;;;;5049519;28;20060;-84
2023/05/06 11:01:37;;;;;;;12.52;5.35;;;24.00;99.90;;;;;;5088382;28;20149;-80
2023/05/06 11:04:18;;;;;;;8.90;4.35;;;24.20;99.90;;;;;;5111944;28;20434;-80
2023/05/06 11:06:45;;;;;;;12.02;6.68;;;24.20;99.90;;;;;;5112515;28;20064;-81
2023/05/06 11:09:18;;;;;;;10.70;5.40;;;24.20;99.90;;;;;;5110020;28;20024;-78
2023/05/06 11:12:03;;;;;;;6.90;3.08;;;24.20;99.90;;;;;;5111775;28;20122;-80
2023/05/06 11:14:36;;;;;;;8.00;3.60;;;24.40;99.90;;;;;;5130917;27;20043;-79
2023/05/06 11:17:06;;;;;;;8.10;3.80;;;24.50;99.90;;;;;;5132160;27;20019;-78
2023/05/06 11:19:34;;;;;;;6.35;3.20;;;24.40;99.90;;;;;;5131741;27;20507;-77
2023/05/06 11:22:02;;;;;;;8.07;3.63;;;24.40;99.90;;;;;;5132018;27;20039;-78
2023/05/06 11:24:39;;;;;;;8.18;3.60;;;24.30;99.90;;;;;;5131229;27;20074;-77
2023/05/06 11:27:06;;;;;;;9.95;3.63;;;24.30;99.90;;;;;;5132646;27;20015;-77
2023/05/06 11:29:32;;;;;;;6.68;3.70;;;24.30;99.90;;;;;;5132314;27;20027;-77
2023/05/06 11:31:58;;;;;;;5.60;3.38;;;24.40;99.90;;;;;;5132394;27;20554;-78
2023/05/06 11:34:28;;;;;;;5.40;3.17;;;24.50;99.90;;;;;;5131715;27;20448;-76
2023/05/06 11:37:05;;;;;;;6.57;3.08;;;24.50;99.90;;;;;;5132408;27;20019;-77
2023/05/06 11:39:33;;;;;;;5.18;2.75;;;24.40;99.90;;;;;;5113626;27;20122;-77
2023/05/06 11:42:01;;;;;;;4.55;3.15;;;24.40;99.90;;;;;;5132254;27;20080;-77
2023/05/06 11:44:32;;;;;;;6.70;3.00;;;24.40;99.90;;;;;;5131587;27;20826;-76
2023/05/06 11:47:00;;;;;;;4.55;2.80;;;24.40;99.90;;;;;;5131546;28;20106;-77
2023/05/06 11:49:26;;;;;;;4.88;2.85;;;24.60;99.90;;;;;;5132256;28;20376;-77
2023/05/06 11:51:53;;;;;;;5.35;2.97;;;24.80;99.90;;;;;;5113380;28;20130;-74
2023/05/06 11:54:21;;;;;;;3.88;2.50;;;25.00;99.90;;;;;;5131467;28;20043;-76
2023/05/06 11:56:52;;;;;;;4.85;2.50;;;25.10;99.90;;;;;;5131907;28;20027;-76
2023/05/06 11:59:32;;;;;;;4.32;2.50;;;25.10;99.90;;;;;;5131618;28;20183;-77
2023/05/06 12:02:01;;;;;;;5.63;2.40;;;25.20;99.90;;;;;;5131697;28;20043;-77
2023/05/06 12:04:27;;;;;;;4.32;2.33;;;25.40;99.90;;;;;;5132247;28;20023;-75
2023/05/06 12:06:54;;;;;;;7.18;2.25;;;25.30;99.90;;;;;;5131956;28;20046;-75
2023/05/06 12:09:23;;;;;;;5.47;2.50;;;25.40;99.90;;;;;;5120847;28;20049;-75
2023/05/06 12:11:50;;;;;;;4.38;2.17;;;25.60;99.90;;;;;;5111374;28;20115;-75
2023/05/06 12:14:16;;;;;;;5.80;2.33;;;25.70;99.90;;;;;;5110846;28;20031;-74
2023/05/06 12:16:42;;;;;;;5.68;2.25;;;25.70;99.90;;;;;;5110931;28;20053;-75
2023/05/06 12:19:07;;;;;;;3.83;1.92;;;25.70;99.90;;;;;;5111288;28;20046;-75
2023/05/06 12:21:37;;;;;;;3.25;2.00;;;25.70;99.90;;;;;;5112057;28;20031;-76
2023/05/06 12:24:03;;;;;;;4.15;2.28;;;25.80;99.90;;;;;;5111611;28;20507;-76
2023/05/06 12:26:42;;;;;;;8.13;2.45;;;25.80;99.90;;;;;;5111247;28;20049;-76
2023/05/06 12:29:10;;;;;;;7.35;2.25;;;25.70;99.90;;;;;;5110571;28;20043;-76
2023/05/06 12:31:36;;;;;;;5.90;2.33;;;25.60;99.90;;;;;;5107888;28;20042;-77
2023/05/06 12:34:03;;;;;;;7.00;2.20;;;25.40;99.90;;;;;;5112357;28;20024;-76
2023/05/06 12:36:29;;;;;;;5.88;2.30;;;25.10;99.90;;;;;;5115413;28;20027;-78
2023/05/06 12:39:00;;;;;;;6.35;2.05;;;24.90;99.90;;;;;;5115602;28;20027;-78
2023/05/06 12:41:38;;;;;;;4.60;2.10;;;24.60;99.90;;;;;;5115219;28;20055;-78
2023/05/06 12:44:32;;;;;;;3.67;1.80;;;24.60;99.90;;;;;;5115103;28;20362;-79
2023/05/06 12:47:00;;;;;;;5.65;2.03;;;24.60;99.90;;;;;;5114715;28;20023;-80